Time;durP1;ratioP1;P1;durP2;ratioP2;P2;SDS_P1;SDS_P2;PMS_P1;PMS_P2;Temp;Humidity;BMP_temperature;BMP_pressure;BME280_temperature;BME280_humidity;BME280_pressure;Samples;Min_cycle;Max_cycle;Signal;HPM_P1;HPM_P2
2021/12/02 00:01:35;;;;;;;7.00;1.50;;;4.40;1.00;;;;;;4992378;28;20230;-59
2021/12/02 00:04:03;;;;;;;10.53;2.30;;;4.40;1.00;;;;;;4992633;28;20237;-60
2021/12/02 00:06:30;;;;;;;6.23;1.87;;;4.40;1.00;;;;;;4992545;28;20211;-61
2021/12/02 00:08:57;;;;;;;7.80;2.00;;;4.40;1.00;;;;;;4992423;28;20212;-59
2021/12/02 00:11:24;;;;;;;5.27;1.83;;;4.40;1.00;;;;;;4992085;28;20620;-60
2021/12/02 00:13:55;;;;;;;4.70;2.00;;;4.30;1.00;;;;;;4992300;28;20257;-59
2021/12/02 00:16:27;;;;;;;9.47;2.10;;;4.40;1.00;;;;;;4992625;28;20252;-60
2021/12/02 00:21:45;;;;;;;11.50;2.37;;;4.40;1.00;;;;;;4992118;28;20729;-60
2021/12/02 00:24:14;;;;;;;7.97;1.77;;;4.40;1.00;;;;;;4992027;28;20238;-60
2021/12/02 00:26:41;;;;;;;7.20;2.13;;;4.40;1.00;;;;;;4992323;28;20214;-60
2021/12/02 00:29:09;;;;;;;7.67;1.93;;;4.40;1.00;;;;;;4992374;28;20265;-60
2021/12/02 00:31:38;;;;;;;8.97;1.90;;;4.40;1.00;;;;;;4991756;28;20297;-60
2021/12/02 00:34:07;;;;;;;7.00;2.57;;;4.40;1.00;;;;;;4995578;28;20241;-60
2021/12/02 00:36:37;;;;;;;7.90;1.80;;;4.50;1.00;;;;;;4995980;28;20218;-60
2021/12/02 00:39:08;;;;;;;6.70;2.33;;;4.50;1.00;;;;;;4996320;28;20217;-60
2021/12/02 00:41:35;;;;;;;5.80;1.77;;;4.50;1.00;;;;;;4995776;28;20562;-60
2021/12/02 00:44:02;;;;;;;9.27;1.83;;;4.40;1.00;;;;;;4995927;28;20232;-60
2021/12/02 00:46:31;;;;;;;10.90;2.30;;;4.50;1.00;;;;;;4996033;28;20289;-60
2021/12/02 00:49:02;;;;;;;7.77;1.70;;;4.50;1.00;;;;;;4995970;28;20404;-60
2021/12/02 00:51:28;;;;;;;6.00;2.03;;;4.50;1.00;;;;;;4995363;28;20592;-59
2021/12/02 00:54:00;;;;;;;5.17;2.30;;;4.50;1.00;;;;;;4995905;28;20608;-60
2021/12/02 00:56:28;;;;;;;9.50;2.10;;;4.50;1.00;;;;;;4995813;28;20219;-60
2021/12/02 00:58:55;;;;;;;5.30;1.77;;;4.50;1.00;;;;;;4995834;28;20214;-60
2021/12/02 01:01:24;;;;;;;9.47;1.90;;;4.40;1.00;;;;;;4995383;28;20262;-58
2021/12/02 01:03:56;;;;;;;9.63;2.00;;;4.40;1.00;;;;;;4995357;28;20231;-59
2021/12/02 01:06:23;;;;;;;17.10;2.53;;;4.40;1.00;;;;;;4995796;28;20245;-57
2021/12/02 01:08:49;;;;;;;7.83;2.27;;;4.50;1.00;;;;;;4995820;28;20294;-57
2021/12/02 01:11:17;;;;;;;8.70;2.33;;;4.50;1.00;;;;;;4995536;28;20230;-60
2021/12/02 01:13:46;;;;;;;7.77;1.87;;;4.50;1.00;;;;;;4995379;28;20241;-60
2021/12/02 01:16:13;;;;;;;6.10;1.93;;;4.50;1.00;;;;;;4995430;28;20261;-60
2021/12/02 01:18:40;;;;;;;8.10;2.37;;;4.40;1.00;;;;;;4995547;28;20265;-60
2021/12/02 01:21:07;;;;;;;6.80;2.40;;;4.50;1.00;;;;;;4995041;28;20213;-59
2021/12/02 01:23:34;;;;;;;5.33;1.90;;;4.50;1.00;;;;;;4995213;28;20235;-60
2021/12/02 01:26:04;;;;;;;7.23;1.87;;;4.50;1.00;;;;;;4995382;28;20296;-59
2021/12/02 01:28:31;;;;;;;9.90;2.00;;;4.50;1.00;;;;;;4995378;28;20266;-59
2021/12/02 01:31:00;;;;;;;9.23;2.70;;;4.50;1.00;;;;;;4995500;28;20238;-59
2021/12/02 01:33:28;;;;;;;9.63;2.03;;;4.50;1.00;;;;;;4995019;28;20231;-60
2021/12/02 01:35:58;;;;;;;9.93;2.07;;;4.50;1.00;;;;;;4995182;28;20209;-60
2021/12/02 01:38:26;;;;;;;10.83;2.50;;;4.40;1.00;;;;;;4995243;28;20211;-59
2021/12/02 01:40:57;;;;;;;11.90;2.37;;;4.40;1.00;;;;;;4995528;28;20205;-58
2021/12/02 01:43:43;;;;;;;6.13;2.37;;;4.40;1.00;;;;;;4994039;28;20238;-60
2021/12/02 01:46:11;;;;;;;9.53;2.07;;;4.40;1.00;;;;;;4994673;28;20626;-60
2021/12/02 01:48:40;;;;;;;6.53;2.20;;;4.40;1.00;;;;;;4994686;28;20762;-60
2021/12/02 01:51:10;;;;;;;8.40;2.70;;;4.40;1.00;;;;;;4994844;28;20827;-60
2021/12/02 01:53:39;;;;;;;17.67;2.47;;;4.40;1.00;;;;;;4994581;28;20226;-57
2021/12/02 01:56:10;;;;;;;6.80;2.30;;;4.30;1.00;;;;;;4994629;28;20679;-59
2021/12/02 01:58:42;;;;;;;7.57;2.20;;;4.30;1.00;;;;;;4994876;28;20232;-60
2021/12/02 02:01:16;;;;;;;10.50;2.23;;;4.30;1.00;;;;;;4994483;28;20215;-59
2021/12/02 02:03:44;;;;;;;6.53;2.30;;;4.30;1.00;;;;;;4994632;28;20230;-57
2021/12/02 02:06:14;;;;;;;7.03;2.40;;;4.30;1.00;;;;;;4994437;28;20217;-59
2021/12/02 02:08:46;;;;;;;8.03;2.17;;;4.30;1.00;;;;;;4994460;28;20674;-60
2021/12/02 02:11:13;;;;;;;6.00;1.73;;;4.30;1.00;;;;;;4994167;28;20321;-60
2021/12/02 02:13:42;;;;;;;8.47;2.23;;;4.30;1.00;;;;;;4994414;28;20231;-60
2021/12/02 02:16:08;;;;;;;4.17;2.10;;;4.30;1.00;;;;;;4994545;28;20237;-60
2021/12/02 02:18:37;;;;;;;9.07;2.13;;;4.30;1.00;;;;;;4994527;28;20215;-60
2021/12/02 02:21:08;;;;;;;6.23;2.17;;;4.30;1.00;;;;;;4994551;28;20263;-60
2021/12/02 02:23:43;;;;;;;5.40;2.20;;;4.40;1.00;;;;;;4994201;28;20577;-60
2021/12/02 02:26:09;;;;;;;8.27;2.73;;;4.40;1.00;;;;;;4994136;28;20212;-60
2021/12/02 02:28:37;;;;;;;17.00;3.13;;;4.40;1.00;;;;;;4994392;28;20256;-58
2021/12/02 02:31:04;;;;;;;8.77;2.87;;;4.30;1.00;;;;;;4993816;28;20229;-60
2021/12/02 02:33:36;;;;;;;11.07;2.67;;;4.30;1.00;;;;;;4993935;28;20256;-59
2021/12/02 02:36:05;;;;;;;7.20;2.63;;;4.30;1.00;;;;;;4994597;28;20586;-60
2021/12/02 02:38:32;;;;;;;5.33;2.27;;;4.30;1.00;;;;;;4994414;28;20209;-58
2021/12/02 02:41:01;;;;;;;6.63;2.63;;;4.30;1.00;;;;;;4994377;28;20213;-60
2021/12/02 02:43:30;;;;;;;10.07;2.67;;;4.30;1.00;;;;;;4993525;28;20231;-60
2021/12/02 02:45:56;;;;;;;9.97;2.20;;;4.30;1.00;;;;;;4993813;28;20242;-60
2021/12/02 02:48:23;;;;;;;10.13;2.57;;;4.30;1.00;;;;;;4994058;28;20210;-60
2021/12/02 02:50:50;;;;;;;7.80;2.33;;;4.40;1.00;;;;;;4994015;28;20234;-57
2021/12/02 02:53:22;;;;;;;11.87;2.17;;;4.40;1.00;;;;;;4993072;28;20234;-59
2021/12/02 02:55:58;;;;;;;8.90;2.50;;;4.40;1.00;;;;;;4993789;28;20213;-60
2021/12/02 02:58:33;;;;;;;3.97;2.00;;;4.40;1.00;;;;;;4993480;28;20691;-57
2021/12/02 03:01:09;;;;;;;7.10;2.50;;;4.40;1.00;;;;;;4993371;28;20646;-59
2021/12/02 03:03:42;;;;;;;6.17;2.70;;;4.40;1.00;;;;;;4993484;28;20321;-60
2021/12/02 03:06:26;;;;;;;10.97;2.53;;;4.40;1.00;;;;;;4993342;28;20650;-58
2021/12/02 03:08:59;;;;;;;4.37;2.30;;;4.40;1.00;;;;;;4993199;28;20218;-60
2021/12/02 03:11:36;;;;;;;5.83;2.37;;;4.40;1.00;;;;;;4993074;28;20231;-60
2021/12/02 03:14:10;;;;;;;12.23;3.07;;;4.40;1.00;;;;;;4993472;28;20281;-57
2021/12/02 03:16:45;;;;;;;6.00;1.93;;;4.40;1.00;;;;;;4993234;28;20208;-60
2021/12/02 03:19:13;;;;;;;5.83;2.30;;;4.40;1.00;;;;;;4992936;28;20237;-60
2021/12/02 03:21:40;;;;;;;6.70;2.97;;;4.30;1.00;;;;;;4992883;28;20265;-59
2021/12/02 03:24:08;;;;;;;8.97;3.13;;;4.30;1.00;;;;;;4992676;28;20354;-60
2021/12/02 03:26:36;;;;;;;7.00;3.57;;;4.30;1.00;;;;;;4993345;28;20586;-59
2021/12/02 03:29:03;;;;;;;8.40;4.37;;;4.20;1.00;;;;;;4992923;28;20214;-60
2021/12/02 03:31:30;;;;;;;11.43;5.37;;;4.20;1.00;;;;;;4992439;28;20231;-60
2021/12/02 03:33:57;;;;;;;9.77;5.37;;;4.10;1.00;;;;;;4992649;28;20238;-60
2021/12/02 03:36:24;;;;;;;9.03;5.80;;;4.10;1.00;;;;;;4993127;28;20218;-60
2021/12/02 03:38:51;;;;;;;11.20;6.10;;;4.10;1.00;;;;;;4992942;28;20714;-58
2021/12/02 03:41:19;;;;;;;9.17;5.80;;;4.10;1.00;;;;;;4992553;28;20609;-60
2021/12/02 03:43:48;;;;;;;11.27;5.73;;;4.10;1.00;;;;;;4992711;28;20227;-57
2021/12/02 03:46:19;;;;;;;10.13;5.20;;;4.10;1.00;;;;;;4992465;28;20600;-58
2021/12/02 03:48:46;;;;;;;8.57;4.03;;;4.10;1.00;;;;;;4992995;28;20210;-60
2021/12/02 03:51:14;;;;;;;9.10;4.47;;;4.10;1.00;;;;;;4992050;28;20639;-60
2021/12/02 03:53:41;;;;;;;7.83;3.43;;;4.00;1.00;;;;;;4992982;28;20239;-60
2021/12/02 03:56:08;;;;;;;10.77;3.30;;;3.90;1.00;;;;;;4992615;28;20208;-59
2021/12/02 03:58:38;;;;;;;5.53;2.90;;;3.90;1.00;;;;;;4992540;28;20703;-60
2021/12/02 04:01:07;;;;;;;7.57;2.40;;;4.00;1.00;;;;;;4992305;28;20212;-60
2021/12/02 04:03:34;;;;;;;6.73;2.27;;;3.90;1.00;;;;;;4992474;28;20232;-59
2021/12/02 04:06:01;;;;;;;3.07;1.70;;;3.80;1.00;;;;;;4992594;28;20204;-60
2021/12/02 04:08:31;;;;;;;4.37;1.50;;;3.80;1.00;;;;;;4994989;28;20212;-60
2021/12/02 04:11:12;;;;;;;5.53;2.07;;;3.80;1.00;;;;;;4996511;28;20256;-60
2021/12/02 04:13:48;;;;;;;5.33;2.13;;;3.90;1.00;;;;;;4996649;28;20231;-59
2021/12/02 04:16:17;;;;;;;7.33;2.63;;;3.80;1.00;;;;;;4996791;28;20279;-60
2021/12/02 04:18:44;;;;;;;5.20;2.03;;;3.90;1.00;;;;;;4996632;28;20213;-60
2021/12/02 04:21:11;;;;;;;6.67;2.70;;;3.90;1.00;;;;;;4995912;28;20729;-60
2021/12/02 04:23:38;;;;;;;6.70;3.90;;;3.90;1.00;;;;;;4996268;28;20275;-60
2021/12/02 04:26:05;;;;;;;6.57;4.13;;;3.90;1.00;;;;;;4996467;28;20271;-60
2021/12/02 04:28:32;;;;;;;8.93;5.07;;;3.90;1.00;;;;;;4996490;28;20678;-60
2021/12/02 04:31:00;;;;;;;9.77;4.87;;;3.90;1.00;;;;;;4996268;28;20233;-60
2021/12/02 04:33:28;;;;;;;7.10;5.13;;;3.90;1.00;;;;;;4996246;28;20227;-58
2021/12/02 04:35:55;;;;;;;8.93;5.43;;;3.90;1.00;;;;;;4996302;28;20213;-60
2021/12/02 04:38:22;;;;;;;9.50;6.07;;;3.90;1.00;;;;;;4996010;28;20212;-57
2021/12/02 04:40:48;;;;;;;11.37;6.17;;;4.00;1.00;;;;;;4996044;28;20213;-57
2021/12/02 04:43:15;;;;;;;9.70;6.27;;;4.00;1.00;;;;;;4995434;28;20224;-60
2021/12/02 04:45:42;;;;;;;10.27;5.90;;;4.00;1.00;;;;;;4996111;28;20283;-60
2021/12/02 04:48:10;;;;;;;10.73;6.73;;;4.00;1.00;;;;;;4995966;28;20721;-60
2021/12/02 04:50:36;;;;;;;14.53;7.47;;;4.00;1.00;;;;;;4995802;28;20653;-59
2021/12/02 04:53:03;;;;;;;11.27;7.00;;;4.00;1.00;;;;;;4995495;28;20353;-60
2021/12/02 04:55:30;;;;;;;13.57;6.77;;;4.00;1.00;;;;;;4995668;28;20206;-59
2021/12/02 04:57:57;;;;;;;10.50;6.83;;;4.00;1.00;;;;;;4996037;28;20213;-60
2021/12/02 05:00:24;;;;;;;11.43;7.07;;;4.00;1.00;;;;;;4995661;28;20737;-58
2021/12/02 05:02:51;;;;;;;15.47;7.80;;;4.00;1.00;;;;;;4995233;28;20224;-58
2021/12/02 05:05:19;;;;;;;14.50;8.03;;;3.90;1.00;;;;;;4995468;28;20212;-56
2021/12/02 05:07:48;;;;;;;14.10;8.57;;;3.90;1.00;;;;;;4995407;28;20666;-58
2021/12/02 05:10:15;;;;;;;13.53;7.57;;;3.90;1.00;;;;;;4995581;28;20634;-60
2021/12/02 05:12:41;;;;;;;14.80;8.37;;;3.90;1.00;;;;;;4995069;28;20227;-58
2021/12/02 05:15:09;;;;;;;14.60;8.90;;;3.90;1.00;;;;;;4995653;28;20859;-60
2021/12/02 05:17:36;;;;;;;13.73;8.40;;;3.90;1.00;;;;;;4995566;28;20215;-60
2021/12/02 05:20:03;;;;;;;13.93;8.10;;;3.90;1.00;;;;;;4995057;28;20215;-60
2021/12/02 05:22:31;;;;;;;12.10;7.93;;;3.80;1.00;;;;;;4992579;28;20630;-60
2021/12/02 05:24:57;;;;;;;13.43;7.97;;;3.80;1.00;;;;;;4998490;28;20212;-60
2021/12/02 05:27:24;;;;;;;12.67;7.23;;;3.80;1.00;;;;;;4995141;28;20213;-60
2021/12/02 05:29:51;;;;;;;12.50;6.37;;;3.80;1.00;;;;;;4995404;28;20229;-60
2021/12/02 05:32:17;;;;;;;7.70;4.37;;;3.80;1.00;;;;;;4994353;28;20228;-57
2021/12/02 05:34:47;;;;;;;7.20;4.30;;;3.80;1.00;;;;;;4992912;28;20243;-59
2021/12/02 05:37:13;;;;;;;7.83;4.30;;;3.70;1.00;;;;;;5008717;28;20209;-59
2021/12/02 05:39:41;;;;;;;6.83;3.33;;;3.70;1.00;;;;;;5014411;28;20253;-59
2021/12/02 05:42:08;;;;;;;4.53;3.00;;;3.60;1.00;;;;;;5014214;28;20199;-59
2021/12/02 05:44:35;;;;;;;6.43;3.47;;;3.60;1.00;;;;;;5014305;28;20283;-57
2021/12/02 05:47:01;;;;;;;3.77;2.50;;;3.50;1.00;;;;;;5014391;28;20242;-60
2021/12/02 05:49:28;;;;;;;4.67;3.40;;;3.50;1.00;;;;;;4999369;28;20246;-56
2021/12/02 05:51:55;;;;;;;6.53;3.30;;;3.50;1.00;;;;;;4994388;28;20234;-57
2021/12/02 05:54:22;;;;;;;9.40;3.90;;;3.50;1.00;;;;;;4994599;28;20232;-54
2021/12/02 05:56:50;;;;;;;5.47;3.97;;;3.50;1.00;;;;;;4994575;28;20459;-60
2021/12/02 05:59:16;;;;;;;7.30;4.40;;;3.50;1.00;;;;;;4994459;28;20212;-60
2021/12/02 06:01:43;;;;;;;7.33;4.60;;;3.50;1.00;;;;;;4993917;28;20215;-60
2021/12/02 06:04:10;;;;;;;7.63;4.73;;;3.50;1.00;;;;;;4994562;28;20239;-59
2021/12/02 06:06:36;;;;;;;10.17;4.60;;;3.50;1.00;;;;;;4994073;28;20698;-59
2021/12/02 06:09:04;;;;;;;8.60;4.83;;;3.60;1.00;;;;;;4994380;28;20258;-60
2021/12/02 06:11:31;;;;;;;8.03;4.77;;;3.60;1.00;;;;;;4993749;28;20225;-55
2021/12/02 06:13:59;;;;;;;9.97;4.40;;;3.60;1.00;;;;;;4994103;28;20236;-56
2021/12/02 06:16:26;;;;;;;6.63;4.33;;;3.60;1.00;;;;;;4994207;28;20212;-60
2021/12/02 06:18:52;;;;;;;10.13;4.73;;;3.50;1.00;;;;;;4993846;28;20745;-58
2021/12/02 06:21:19;;;;;;;7.43;5.20;;;3.50;1.00;;;;;;4993652;28;20203;-56
2021/12/02 06:23:46;;;;;;;10.50;5.10;;;3.50;1.00;;;;;;4993026;28;20240;-60
2021/12/02 06:26:13;;;;;;;8.80;4.83;;;3.50;1.00;;;;;;4984598;28;20204;-58
2021/12/02 06:28:40;;;;;;;7.37;4.50;;;3.50;1.00;;;;;;4993482;28;20298;-59
2021/12/02 06:31:08;;;;;;;6.60;4.87;;;3.50;1.00;;;;;;4992586;28;20271;-59
2021/12/02 06:33:35;;;;;;;10.97;4.97;;;3.50;1.00;;;;;;4993731;28;20238;-60
2021/12/02 06:36:01;;;;;;;10.97;5.87;;;3.40;1.00;;;;;;4993419;28;20462;-58
2021/12/02 06:38:28;;;;;;;8.90;5.53;;;3.50;1.00;;;;;;5010903;28;20211;-59
2021/12/02 06:40:55;;;;;;;7.90;5.67;;;3.50;1.00;;;;;;5012793;28;20215;-58
2021/12/02 06:43:22;;;;;;;9.53;5.73;;;3.50;1.00;;;;;;5012370;28;20225;-56
2021/12/02 06:45:49;;;;;;;9.50;5.77;;;3.50;1.00;;;;;;5012342;28;20834;-55
2021/12/02 06:48:17;;;;;;;8.60;5.63;;;3.50;1.00;;;;;;5012696;28;20516;-58
2021/12/02 06:50:43;;;;;;;7.93;5.07;;;3.50;1.00;;;;;;5012766;28;20697;-59
2021/12/02 06:53:10;;;;;;;8.20;5.13;;;3.50;1.00;;;;;;5012268;28;20682;-58
2021/12/02 06:55:37;;;;;;;9.80;5.57;;;3.60;1.00;;;;;;5012587;28;20218;-59
2021/12/02 06:58:04;;;;;;;8.40;5.47;;;3.60;1.00;;;;;;5012325;28;20593;-57
2021/12/02 07:00:30;;;;;;;8.50;5.17;;;3.50;1.00;;;;;;5012600;28;20211;-58
2021/12/02 07:02:57;;;;;;;10.63;5.17;;;3.50;1.00;;;;;;5012313;28;20288;-56
2021/12/02 07:05:25;;;;;;;11.53;6.00;;;3.50;1.00;;;;;;5010991;28;20211;-59
2021/12/02 07:07:52;;;;;;;11.23;6.00;;;3.40;1.00;;;;;;5012464;28;20207;-57
2021/12/02 07:10:23;;;;;;;8.70;5.90;;;3.50;1.00;;;;;;5011997;28;20207;-56
2021/12/02 07:12:53;;;;;;;9.17;5.93;;;3.50;1.00;;;;;;5012032;28;20660;-58
2021/12/02 07:15:25;;;;;;;15.80;6.63;;;3.60;1.00;;;;;;5012244;28;20230;-58
2021/12/02 07:17:55;;;;;;;14.53;8.07;;;3.50;1.00;;;;;;5012445;28;20203;-59
2021/12/02 07:20:23;;;;;;;12.60;9.00;;;3.50;1.00;;;;;;5012086;28;20215;-60
2021/12/02 07:22:51;;;;;;;15.67;9.60;;;3.50;1.00;;;;;;5011564;28;20313;-61
2021/12/02 07:25:18;;;;;;;16.63;9.60;;;3.50;1.00;;;;;;5011684;28;20232;-64
2021/12/02 07:27:47;;;;;;;18.67;11.27;;;3.80;1.00;;;;;;5012156;28;20255;-59
2021/12/02 07:30:14;;;;;;;22.03;12.20;;;4.10;1.00;;;;;;5011583;28;20294;-60
2021/12/02 07:32:42;;;;;;;19.53;12.50;;;4.00;1.00;;;;;;5012102;28;20230;-59
2021/12/02 07:35:11;;;;;;;20.43;11.90;;;4.00;1.00;;;;;;5011959;28;20207;-58
2021/12/02 07:37:42;;;;;;;15.57;10.73;;;3.90;1.00;;;;;;5012114;28;20351;-60
2021/12/02 07:40:12;;;;;;;21.53;12.73;;;3.90;1.00;;;;;;5012216;28;20193;-59
2021/12/02 07:42:39;;;;;;;21.93;12.53;;;3.80;1.00;;;;;;5011825;28;20220;-61
2021/12/02 07:45:07;;;;;;;24.83;13.50;;;3.80;1.00;;;;;;5009594;28;20274;-61
2021/12/02 07:47:34;;;;;;;23.07;12.10;;;3.60;1.00;;;;;;4992541;28;20590;-61
2021/12/02 07:50:01;;;;;;;18.23;11.77;;;3.50;1.00;;;;;;4992149;28;20259;-60
2021/12/02 07:52:30;;;;;;;15.67;10.70;;;3.50;1.00;;;;;;4990923;28;20233;-62
2021/12/02 07:54:58;;;;;;;17.93;10.60;;;3.40;1.00;;;;;;4992146;28;20282;-60
2021/12/02 07:57:26;;;;;;;16.60;10.57;;;3.40;1.00;;;;;;4992057;28;20215;-61
2021/12/02 07:59:54;;;;;;;10.93;8.33;;;3.30;1.00;;;;;;4992128;28;20871;-64
2021/12/02 08:02:22;;;;;;;11.37;7.20;;;3.20;1.00;;;;;;4991138;28;20215;-61
2021/12/02 08:04:49;;;;;;;9.43;6.57;;;3.20;1.00;;;;;;4991934;28;20311;-61
2021/12/02 08:07:15;;;;;;;11.37;6.93;;;3.20;1.00;;;;;;4992150;28;20454;-61
2021/12/02 08:09:42;;;;;;;10.37;6.27;;;3.20;1.00;;;;;;4991905;28;20454;-61
2021/12/02 08:12:09;;;;;;;10.30;6.07;;;3.20;1.00;;;;;;4991439;28;20483;-60
2021/12/02 08:14:38;;;;;;;8.90;7.17;;;3.20;1.00;;;;;;4991918;28;20228;-59
2021/12/02 08:17:05;;;;;;;9.13;6.03;;;3.20;1.00;;;;;;4991586;28;20454;-59
2021/12/02 08:19:31;;;;;;;9.07;6.40;;;3.20;1.00;;;;;;4992083;28;20207;-55
2021/12/02 08:21:58;;;;;;;12.50;6.07;;;3.20;1.00;;;;;;4991705;28;20554;-60
2021/12/02 08:24:25;;;;;;;7.33;5.50;;;3.30;1.00;;;;;;4991492;28;20254;-61
2021/12/02 08:26:53;;;;;;;10.33;5.10;;;3.40;1.00;;;;;;4993006;28;20462;-58
2021/12/02 08:29:20;;;;;;;6.33;4.60;;;3.40;1.00;;;;;;5011302;28;20482;-57
2021/12/02 08:31:48;;;;;;;7.93;4.93;;;3.40;1.00;;;;;;5010315;28;20212;-57
2021/12/02 08:34:16;;;;;;;7.47;5.17;;;3.30;1.00;;;;;;5011191;28;20257;-56
2021/12/02 08:36:45;;;;;;;7.10;5.10;;;3.30;1.00;;;;;;5011287;28;20528;-56
2021/12/02 08:39:17;;;;;;;9.17;5.07;;;3.40;1.00;;;;;;5011248;28;21049;-58
2021/12/02 08:41:47;;;;;;;6.93;4.50;;;3.30;1.00;;;;;;5011178;28;20235;-56
2021/12/02 08:44:15;;;;;;;5.57;4.07;;;3.30;1.00;;;;;;5420016;23;20989;-57
2021/12/02 08:46:41;;;;;;;7.07;4.43;;;3.20;1.00;;;;;;4972563;28;20455;-59
2021/12/02 08:49:09;;;;;;;4.47;3.60;;;3.30;1.00;;;;;;4972647;28;20847;-63
2021/12/02 08:51:37;;;;;;;6.40;4.50;;;3.30;1.00;;;;;;4972015;28;20220;-62
2021/12/02 08:54:03;;;;;;;5.87;4.23;;;3.30;1.00;;;;;;4973548;28;21083;-63
2021/12/02 08:56:30;;;;;;;4.70;3.67;;;3.40;1.00;;;;;;4975273;28;20451;-62
2021/12/02 08:58:58;;;;;;;6.93;3.70;;;3.30;1.00;;;;;;4975371;28;20812;-61
2021/12/02 09:01:25;;;;;;;5.00;3.43;;;3.20;1.00;;;;;;4975206;28;20459;-62
2021/12/02 09:03:52;;;;;;;7.77;3.10;;;3.20;1.00;;;;;;4975844;28;20511;-62
2021/12/02 09:06:22;;;;;;;4.90;2.73;;;3.20;1.00;;;;;;4985207;28;20451;-63
2021/12/02 09:08:50;;;;;;;3.50;2.87;;;3.20;1.00;;;;;;4995343;28;20192;-62
2021/12/02 09:11:17;;;;;;;8.53;3.37;;;3.20;1.00;;;;;;4994428;28;20455;-62
2021/12/02 09:13:44;;;;;;;9.70;3.13;;;3.20;1.00;;;;;;4994710;28;20514;-62
2021/12/02 09:16:11;;;;;;;6.40;2.87;;;3.20;1.00;;;;;;4994592;28;20455;-61
2021/12/02 09:18:38;;;;;;;2.93;2.40;;;3.30;1.00;;;;;;4995080;28;20486;-63
2021/12/02 09:21:05;;;;;;;4.07;2.37;;;3.20;1.00;;;;;;4994711;28;20454;-63
2021/12/02 09:23:33;;;;;;;4.80;2.30;;;3.20;1.00;;;;;;4994594;28;20220;-63
2021/12/02 09:26:00;;;;;;;3.20;1.97;;;3.20;1.00;;;;;;4994225;28;20461;-63
2021/12/02 09:28:28;;;;;;;4.93;2.20;;;3.20;1.00;;;;;;4994469;28;20212;-61
2021/12/02 09:30:54;;;;;;;3.23;2.10;;;3.30;1.00;;;;;;4994365;28;20212;-61
2021/12/02 09:33:21;;;;;;;4.13;2.27;;;3.40;1.00;;;;;;4993967;28;20231;-60
2021/12/02 09:35:48;;;;;;;4.63;2.60;;;3.40;1.00;;;;;;4994080;28;20218;-58
2021/12/02 09:38:15;;;;;;;4.63;2.80;;;3.50;1.00;;;;;;4994069;28;20641;-60
2021/12/02 09:40:44;;;;;;;4.30;2.30;;;3.60;1.00;;;;;;4994580;28;20582;-61
2021/12/02 09:43:12;;;;;;;4.77;3.27;;;3.60;1.00;;;;;;4994063;28;20744;-61
2021/12/02 09:45:39;;;;;;;3.63;2.53;;;3.60;1.00;;;;;;4993831;28;20218;-62
2021/12/02 09:48:08;;;;;;;3.87;2.53;;;3.70;1.00;;;;;;4994273;28;20216;-63
2021/12/02 09:50:37;;;;;;;4.03;2.90;;;3.70;1.00;;;;;;4994096;28;20217;-61
2021/12/02 09:53:08;;;;;;;5.13;2.53;;;3.80;1.00;;;;;;4993388;28;20725;-60
2021/12/02 09:55:41;;;;;;;4.57;2.60;;;3.70;1.00;;;;;;4993972;28;20269;-61
2021/12/02 09:58:16;;;;;;;4.73;2.87;;;3.80;1.00;;;;;;4994387;28;20272;-62
2021/12/02 10:00:47;;;;;;;4.07;2.57;;;3.70;1.00;;;;;;4994239;28;20294;-63
2021/12/02 10:03:21;;;;;;;3.17;2.70;;;3.60;1.00;;;;;;5075009;23;20700;-62
2021/12/02 10:05:57;;;;;;;10.07;3.57;;;3.60;1.00;;;;;;4973444;28;20848;-62
2021/12/02 10:08:28;;;;;;;6.57;3.60;;;3.40;1.00;;;;;;4974804;28;20208;-65
2021/12/02 10:10:58;;;;;;;5.50;3.63;;;3.30;1.00;;;;;;4974543;28;20683;-62
2021/12/02 10:13:30;;;;;;;5.53;4.10;;;3.40;1.00;;;;;;4974140;28;20240;-62
2021/12/02 10:16:11;;;;;;;10.00;6.13;;;3.40;1.00;;;;;;4974135;28;20235;-62
2021/12/02 10:18:48;;;;;;;10.13;6.97;;;3.40;1.00;;;;;;4974691;28;20263;-64
2021/12/02 10:21:21;;;;;;;8.47;6.13;;;3.40;1.00;;;;;;4974207;28;20215;-65
2021/12/02 10:23:48;;;;;;;7.60;5.47;;;3.70;1.00;;;;;;4974298;28;20720;-65
2021/12/02 10:26:18;;;;;;;8.63;5.70;;;3.80;1.00;;;;;;4973592;28;20210;-61
2021/12/02 10:28:48;;;;;;;8.10;5.10;;;3.80;1.00;;;;;;4973997;28;20920;-60
2021/12/02 10:31:22;;;;;;;8.73;6.10;;;3.70;1.00;;;;;;4974019;28;20209;-60
2021/12/02 10:33:53;;;;;;;8.37;5.80;;;3.70;1.00;;;;;;4973730;28;20492;-60
2021/12/02 10:36:29;;;;;;;8.97;6.40;;;3.60;1.00;;;;;;4973745;28;20208;-60
2021/12/02 10:38:58;;;;;;;10.53;6.97;;;3.50;1.00;;;;;;4974129;28;20220;-58
2021/12/02 10:41:27;;;;;;;9.80;6.20;;;3.40;1.00;;;;;;4973757;28;20217;-60
2021/12/02 10:44:16;;;;;;;9.33;7.10;;;3.40;1.00;;;;;;4974099;28;20220;-60
2021/12/02 10:47:00;;;;;;;10.17;7.10;;;3.30;1.00;;;;;;4973294;28;20453;-61
2021/12/02 10:49:28;;;;;;;10.50;6.70;;;3.30;1.00;;;;;;4974115;28;20212;-61
2021/12/02 10:51:57;;;;;;;9.43;6.50;;;3.30;1.00;;;;;;4973704;28;20947;-61
2021/12/02 10:54:26;;;;;;;10.37;5.90;;;3.30;1.00;;;;;;4974704;28;20870;-62
2021/12/02 10:56:54;;;;;;;8.60;5.20;;;3.20;1.00;;;;;;4974071;28;20455;-62
2021/12/02 10:59:34;;;;;;;8.47;4.40;;;3.20;1.00;;;;;;4973537;28;20455;-61
2021/12/02 11:02:04;;;;;;;4.50;3.60;;;3.30;1.00;;;;;;4973556;28;20749;-61
2021/12/02 11:04:41;;;;;;;6.97;3.80;;;3.40;1.00;;;;;;4973362;28;20244;-61
2021/12/02 11:07:11;;;;;;;3.27;2.60;;;3.50;1.00;;;;;;4973201;28;20234;-60
2021/12/02 11:09:40;;;;;;;4.67;2.80;;;3.50;1.00;;;;;;4973407;28;20463;-59
2021/12/02 11:12:13;;;;;;;3.87;2.30;;;3.60;1.00;;;;;;4972901;28;20209;-60
2021/12/02 11:14:51;;;;;;;5.40;2.70;;;3.60;1.00;;;;;;4973278;28;20236;-61
2021/12/02 11:17:18;;;;;;;4.10;2.50;;;3.70;1.00;;;;;;4973014;28;20466;-60
2021/12/02 11:19:46;;;;;;;5.83;2.53;;;3.80;1.00;;;;;;4973349;28;20213;-60
2021/12/02 11:22:15;;;;;;;4.60;2.40;;;3.80;1.00;;;;;;4972725;28;20256;-60
2021/12/02 11:24:42;;;;;;;4.07;2.13;;;3.80;1.00;;;;;;4972987;28;20217;-59
2021/12/02 11:27:13;;;;;;;5.13;2.97;;;3.80;1.00;;;;;;4975510;28;20234;-61
2021/12/02 11:29:56;;;;;;;4.07;2.83;;;3.80;1.00;;;;;;4992722;28;20208;-61
2021/12/02 11:32:43;;;;;;;6.73;3.30;;;3.80;1.00;;;;;;4991942;28;20217;-59
2021/12/02 11:35:16;;;;;;;7.37;3.20;;;3.80;1.00;;;;;;4992235;28;20207;-59
2021/12/02 11:37:45;;;;;;;6.23;4.57;;;3.70;1.00;;;;;;4992237;28;20216;-58
2021/12/02 11:40:15;;;;;;;8.53;5.13;;;3.70;1.00;;;;;;4992252;28;20223;-60
2021/12/02 11:42:42;;;;;;;7.40;6.23;;;3.70;1.00;;;;;;4992421;28;20263;-60
2021/12/02 11:45:12;;;;;;;10.77;6.40;;;3.70;1.00;;;;;;4992030;28;20208;-60
2021/12/02 11:47:39;;;;;;;12.43;8.52;;;3.70;1.00;;;;;;4990680;28;20803;-60
2021/12/02 11:50:08;;;;;;;11.70;9.45;;;3.60;1.00;;;;;;4991026;28;20418;-60
2021/12/02 11:52:37;;;;;;;13.40;9.00;;;3.70;1.00;;;;;;4990598;28;20446;-58
2021/12/02 11:55:09;;;;;;;11.98;9.27;;;3.70;1.00;;;;;;4990793;28;20899;-60
2021/12/02 11:57:36;;;;;;;12.77;8.82;;;3.90;1.00;;;;;;4990725;28;20484;-61
2021/12/02 12:00:06;;;;;;;11.20;7.55;;;4.10;1.00;;;;;;4990580;28;20484;-60
2021/12/02 12:02:34;;;;;;;10.18;8.02;;;4.10;1.00;;;;;;4990609;28;20887;-59
2021/12/02 12:05:03;;;;;;;11.20;8.80;;;4.10;1.00;;;;;;4990647;28;20476;-58
2021/12/02 12:07:41;;;;;;;11.05;8.65;;;4.20;1.00;;;;;;4984836;28;20455;-59
2021/12/02 12:10:14;;;;;;;11.07;8.60;;;4.10;1.00;;;;;;4971216;28;20424;-60
2021/12/02 12:12:43;;;;;;;11.18;8.13;;;4.20;1.00;;;;;;4970950;28;21108;-58
2021/12/02 12:15:31;;;;;;;10.32;7.53;;;4.20;1.00;;;;;;4971159;28;20404;-60
2021/12/02 12:17:59;;;;;;;8.57;6.20;;;4.20;1.00;;;;;;4971371;28;20404;-60
2021/12/02 12:20:54;;;;;;;6.63;5.00;;;4.10;1.00;;;;;;4970971;28;20914;-60
2021/12/02 12:23:38;;;;;;;5.45;3.80;;;4.20;1.00;;;;;;4970850;28;20416;-59
2021/12/02 12:26:29;;;;;;;4.13;2.38;;;4.20;1.00;;;;;;4971201;28;20770;-56
2021/12/02 12:29:27;;;;;;;3.17;2.00;;;4.20;1.00;;;;;;4972956;28;20420;-56
2021/12/02 12:32:20;;;;;;;3.90;1.70;;;4.30;1.00;;;;;;4974673;28;20419;-60
2021/12/02 12:34:53;;;;;;;2.92;2.10;;;4.30;1.00;;;;;;4966032;28;20459;-61
2021/12/02 12:37:51;;;;;;;4.45;2.88;;;4.00;1.00;;;;;;4975778;28;20434;-61
2021/12/02 12:40:21;;;;;;;6.13;4.45;;;4.10;1.00;;;;;;4955714;29;20899;-61
2021/12/02 12:42:51;;;;;;;7.25;4.65;;;3.90;1.00;;;;;;4967299;28;20435;-61
2021/12/02 12:45:28;;;;;;;6.72;4.35;;;3.90;1.00;;;;;;4974608;28;20431;-61
2021/12/02 12:47:58;;;;;;;6.03;4.95;;;3.90;1.00;;;;;;4974758;28;20451;-60
2021/12/02 12:50:33;;;;;;;9.05;6.15;;;3.70;1.00;;;;;;4974783;28;20916;-59
2021/12/02 12:53:35;;;;;;;7.72;6.00;;;3.70;1.00;;;;;;4974402;28;20427;-59
2021/12/02 12:56:13;;;;;;;6.57;5.30;;;3.70;1.00;;;;;;4974513;28;20457;-59
2021/12/02 12:58:55;;;;;;;5.20;3.80;;;3.50;1.00;;;;;;4974740;28;20781;-59
2021/12/02 13:01:24;;;;;;;5.60;3.78;;;3.60;1.00;;;;;;4974256;28;20420;-61
2021/12/02 13:04:13;;;;;;;5.22;3.53;;;3.70;1.00;;;;;;4974957;28;20431;-61
2021/12/02 13:07:06;;;;;;;7.30;4.90;;;3.70;1.00;;;;;;4974479;28;20427;-62
2021/12/02 13:09:52;;;;;;;3.10;2.50;;;3.60;1.00;;;;;;4971929;28;20460;-62
2021/12/02 13:12:21;;;;;;;3.90;2.08;;;3.60;1.00;;;;;;4973966;28;20424;-58
2021/12/02 13:14:50;;;;;;;4.68;2.22;;;3.70;1.00;;;;;;4974304;28;20796;-56
2021/12/02 13:17:37;;;;;;;4.00;2.55;;;3.80;1.00;;;;;;4974442;28;20869;-60
2021/12/02 13:20:16;;;;;;;3.23;2.30;;;3.80;1.00;;;;;;4974410;28;20551;-60
2021/12/02 13:22:44;;;;;;;5.47;2.50;;;4.00;1.00;;;;;;4977711;28;20426;-61